createdAt,value
2023-01-07T00:00:46.531Z,10.42
2023-01-07T00:01:46.510Z,10.43
2023-01-07T00:02:46.639Z,10.42
2023-01-07T00:03:46.631Z,10.46
2023-01-07T00:04:46.468Z,10.43
2023-01-07T00:05:46.450Z,10.41
2023-01-07T00:06:46.432Z,10.36
2023-01-07T00:07:46.412Z,10.30
2023-01-07T00:08:46.400Z,10.39
2023-01-07T00:09:46.389Z,10.30
2023-01-07T00:10:46.363Z,10.30
2023-01-07T00:11:46.345Z,10.31
2023-01-07T00:12:46.347Z,10.36
2023-01-07T00:13:46.313Z,10.33
2023-01-07T00:14:46.301Z,10.28
2023-01-07T00:15:46.453Z,10.31
2023-01-07T00:16:46.347Z,10.30
2023-01-07T00:17:46.280Z,10.48
2023-01-07T00:18:46.288Z,10.34
2023-01-07T00:19:46.266Z,10.33
2023-01-07T00:20:46.204Z,10.33
2023-01-07T00:21:46.236Z,10.31
2023-01-07T00:22:46.170Z,10.34
2023-01-07T00:23:46.180Z,10.31
2023-01-07T00:24:46.160Z,10.36
2023-01-07T00:25:46.180Z,10.33
2023-01-07T00:26:46.156Z,10.31
2023-01-07T00:27:46.125Z,10.31
2023-01-07T00:28:46.126Z,10.34
2023-01-07T00:29:46.066Z,10.31
2023-01-07T00:30:46.048Z,10.42
2023-01-07T00:31:46.231Z,10.41
2023-01-07T00:32:46.022Z,10.28
2023-01-07T00:33:46.021Z,10.30
2023-01-07T00:34:46.041Z,10.30
2023-01-07T00:35:45.985Z,10.28
2023-01-07T00:36:45.970Z,10.34
2023-01-07T00:37:45.934Z,10.28
2023-01-07T00:38:45.909Z,10.30
2023-01-07T00:39:45.942Z,10.34
2023-01-07T00:40:45.965Z,10.31
2023-01-07T00:41:45.867Z,10.33
2023-01-07T00:42:45.907Z,10.34
2023-01-07T00:43:45.895Z,10.28
2023-01-07T00:44:45.818Z,10.34
2023-01-07T00:45:45.817Z,10.27
2023-01-07T00:46:45.851Z,10.31
2023-01-07T00:47:45.866Z,10.30
2023-01-07T00:48:45.757Z,10.30
2023-01-07T00:49:45.780Z,10.38
2023-01-07T00:50:45.724Z,10.30
2023-01-07T00:51:45.752Z,10.34
2023-01-07T00:52:45.754Z,10.34
2023-01-07T00:53:45.726Z,10.33
2023-01-07T00:54:45.701Z,10.31
2023-01-07T00:55:45.633Z,10.31
2023-01-07T00:56:45.639Z,10.31
2023-01-07T00:57:45.616Z,10.30
2023-01-07T00:58:45.715Z,10.27
2023-01-07T00:59:45.588Z,10.34
2023-01-07T01:00:45.619Z,10.28
2023-01-07T01:01:45.762Z,10.33
2023-01-07T01:02:45.706Z,10.24
2023-01-07T01:03:45.604Z,10.33
2023-01-07T01:04:45.663Z,10.21
2023-01-07T01:05:45.574Z,10.27
2023-01-07T01:06:45.556Z,10.25
2023-01-07T01:07:45.501Z,10.24
2023-01-07T01:08:45.459Z,10.31
2023-01-07T01:09:45.526Z,10.25
2023-01-07T01:10:45.447Z,10.25
2023-01-07T01:11:45.475Z,10.24
2023-01-07T01:12:45.401Z,10.24
2023-01-07T01:13:45.394Z,10.21
2023-01-07T01:14:45.433Z,10.28
2023-01-07T01:15:45.375Z,10.23
2023-01-07T01:16:45.328Z,10.31
2023-01-07T01:17:45.302Z,10.24
2023-01-07T01:18:45.278Z,10.27
2023-01-07T01:19:45.343Z,10.25
2023-01-07T01:20:45.270Z,10.18
2023-01-07T01:21:45.288Z,10.21
2023-01-07T01:22:45.278Z,10.20
2023-01-07T01:23:45.304Z,10.23
2023-01-07T01:24:45.222Z,10.17
2023-01-07T01:25:45.183Z,10.24
2023-01-07T01:26:45.134Z,10.24
2023-01-07T01:27:45.125Z,10.27
2023-01-07T01:28:45.095Z,10.21
2023-01-07T01:29:45.113Z,10.23
2023-01-07T01:30:45.062Z,10.27
2023-01-07T01:31:45.081Z,10.17
2023-01-07T01:32:45.039Z,10.24
2023-01-07T01:33:45.030Z,10.23
2023-01-07T01:34:45.004Z,10.15
2023-01-07T01:35:45.090Z,10.20
2023-01-07T01:36:44.987Z,10.20
2023-01-07T01:37:44.948Z,10.21
2023-01-07T01:38:44.945Z,10.18
2023-01-07T01:39:44.932Z,10.20
2023-01-07T01:40:44.899Z,10.25
2023-01-07T01:41:44.881Z,10.28
2023-01-07T01:42:44.879Z,10.24
2023-01-07T01:43:44.897Z,10.28
2023-01-07T01:44:44.838Z,10.27
2023-01-07T01:45:44.822Z,10.13
2023-01-07T01:46:44.829Z,10.25
2023-01-07T01:47:44.785Z,10.15
2023-01-07T01:48:44.775Z,10.07
2023-01-07T01:49:44.799Z,10.12
2023-01-07T01:50:44.820Z,10.15
2023-01-07T01:51:44.836Z,10.23
2023-01-07T01:52:45.742Z,10.13
2023-01-07T01:53:44.708Z,10.18
2023-01-07T01:54:44.732Z,10.20
2023-01-07T01:55:44.677Z,10.12
2023-01-07T01:56:44.645Z,10.13
2023-01-07T01:57:44.639Z,10.20
2023-01-07T01:58:44.624Z,10.21
2023-01-07T01:59:44.686Z,10.20
2023-01-07T02:00:44.717Z,10.25
2023-01-07T02:01:44.757Z,10.12
2023-01-07T02:02:44.692Z,10.23
2023-01-07T02:03:44.537Z,10.10
2023-01-07T02:04:44.519Z,10.25
2023-01-07T02:05:44.525Z,10.18
2023-01-07T02:06:44.597Z,10.18
2023-01-07T02:07:44.582Z,10.15
2023-01-07T02:08:44.599Z,10.15
2023-01-07T02:09:44.668Z,10.15
2023-01-07T02:10:44.540Z,10.17
2023-01-07T02:11:44.522Z,10.13
2023-01-07T02:12:44.396Z,10.18
2023-01-07T02:13:44.382Z,10.12
2023-01-07T02:14:44.368Z,10.15
2023-01-07T02:15:44.333Z,10.15
2023-01-07T02:16:44.429Z,10.12
2023-01-07T02:17:44.348Z,10.18
2023-01-07T02:18:44.298Z,10.09
2023-01-07T02:19:44.299Z,10.15
2023-01-07T02:20:44.309Z,10.13
2023-01-07T02:21:44.294Z,10.09
2023-01-07T02:22:44.290Z,10.13
2023-01-07T02:23:44.295Z,10.15
2023-01-07T02:24:44.216Z,10.15
2023-01-07T02:25:44.205Z,10.17
2023-01-07T02:26:44.178Z,10.10
2023-01-07T02:27:44.142Z,10.13
2023-01-07T02:28:44.187Z,10.12
2023-01-07T02:29:44.114Z,10.17
2023-01-07T02:30:44.115Z,10.10
2023-01-07T02:31:44.171Z,10.17
2023-01-07T02:32:44.068Z,10.17
2023-01-07T02:33:44.042Z,10.13
2023-01-07T02:34:44.025Z,10.23
2023-01-07T02:35:44.063Z,10.15
2023-01-07T02:36:43.994Z,10.27
2023-01-07T02:37:44.022Z,10.15
2023-01-07T02:38:43.966Z,10.17
2023-01-07T02:39:44.054Z,10.17
2023-01-07T02:40:43.981Z,10.15
2023-01-07T02:41:43.946Z,10.12
2023-01-07T02:42:43.890Z,10.15
2023-01-07T02:43:43.875Z,10.17
2023-01-07T02:44:43.862Z,10.12
2023-01-07T02:45:43.879Z,10.18
2023-01-07T02:46:43.855Z,10.12
2023-01-07T02:47:43.815Z,10.03
2023-01-07T02:48:43.881Z,10.00
2023-01-07T02:49:43.874Z,10.09
2023-01-07T02:50:43.802Z,10.00
2023-01-07T02:51:43.818Z,10.02
2023-01-07T02:52:43.812Z,10.00
2023-01-07T02:53:43.740Z,10.02
2023-01-07T02:54:43.760Z,10.03
2023-01-07T02:55:43.789Z,10.09
2023-01-07T02:56:43.806Z,10.03
2023-01-07T02:57:43.664Z,10.03
2023-01-07T02:58:43.670Z,10.05
2023-01-07T02:59:43.679Z,10.02
2023-01-07T03:00:43.674Z,10.05
2023-01-07T03:01:43.793Z,10.09
2023-01-07T03:02:43.598Z,10.05
2023-01-07T03:03:43.634Z,10.02
2023-01-07T03:04:43.641Z,10.07
2023-01-07T03:05:43.527Z,10.03
2023-01-07T03:06:43.531Z,10.00
2023-01-07T03:07:43.507Z,10.09
2023-01-07T03:08:43.494Z,10.06
2023-01-07T03:09:43.493Z,10.09
2023-01-07T03:10:43.544Z,10.05
2023-01-07T03:11:43.559Z,10.02
2023-01-07T03:13:04.526Z,10.06
2023-01-07T03:13:43.502Z,10.10
2023-01-07T03:14:43.376Z,10.03
2023-01-07T03:15:43.397Z,10.07
2023-01-07T03:16:43.471Z,10.09
2023-01-07T03:17:43.553Z,10.07
2023-01-07T03:18:43.366Z,10.02
2023-01-07T03:19:43.294Z,10.07
2023-01-07T03:20:43.365Z,10.05
2023-01-07T03:21:43.344Z,10.10
2023-01-07T03:22:43.619Z,10.03
2023-01-07T03:23:43.372Z,10.03
2023-01-07T03:24:43.338Z,10.02
2023-01-07T03:25:43.271Z,10.07
2023-01-07T03:26:43.257Z,10.02
2023-01-07T03:27:43.271Z,10.09
2023-01-07T03:28:43.256Z,10.07
2023-01-07T03:29:43.234Z,9.99
2023-01-07T03:30:43.323Z,10.03
2023-01-07T03:31:43.183Z,10.02
2023-01-07T03:32:43.712Z,10.03
2023-01-07T03:33:43.139Z,10.05
2023-01-07T03:34:43.117Z,10.07
2023-01-07T03:35:43.194Z,10.09
2023-01-07T03:36:43.098Z,10.07
2023-01-07T03:37:43.057Z,9.97
2023-01-07T03:38:42.986Z,10.03
2023-01-07T03:39:43.084Z,10.07
2023-01-07T03:40:43.058Z,10.07
2023-01-07T03:41:43.045Z,10.07
2023-01-07T03:42:42.988Z,10.12
2023-01-07T03:43:43.066Z,10.02
2023-01-07T03:44:42.939Z,9.99
2023-01-07T03:45:43.052Z,10.09
2023-01-07T03:46:42.942Z,10.03
2023-01-07T03:47:42.857Z,10.09
2023-01-07T03:48:42.825Z,10.09
2023-01-07T03:49:42.842Z,10.07
2023-01-07T03:50:42.810Z,10.06
2023-01-07T03:51:42.813Z,9.99
2023-01-07T03:52:53.004Z,10.10
2023-01-07T03:54:40.799Z,10.17
2023-01-07T03:55:40.776Z,10.17
2023-01-07T03:57:49.792Z,10.12
2023-01-07T03:58:49.803Z,10.13
2023-01-07T04:00:55.451Z,10.17
2023-01-07T04:01:55.248Z,10.12
2023-01-07T04:04:05.306Z,10.18
2023-01-07T04:05:05.246Z,10.20
2023-01-07T04:07:12.089Z,10.15
2023-01-07T04:08:12.134Z,10.12
2023-01-07T04:10:19.095Z,10.15
2023-01-07T04:11:18.983Z,10.20
2023-01-07T04:13:26.031Z,10.15
2023-01-07T04:14:26.049Z,10.17
2023-01-07T04:16:34.142Z,10.21
2023-01-07T04:17:33.969Z,10.20
2023-01-07T04:19:43.968Z,10.24
2023-01-07T04:20:43.935Z,10.24
2023-01-07T04:22:50.972Z,10.23
2023-01-07T04:23:50.916Z,10.18
2023-01-07T04:25:57.854Z,10.10
2023-01-07T04:26:57.800Z,10.23
2023-01-07T04:29:05.269Z,10.24
2023-01-07T04:30:04.846Z,10.24
2023-01-07T04:31:04.824Z,10.13
2023-01-07T04:32:04.739Z,10.28
2023-01-07T04:33:04.718Z,10.15
2023-01-07T04:34:04.715Z,10.25
2023-01-07T04:35:04.668Z,10.17
2023-01-07T04:36:04.649Z,10.13
2023-01-07T04:37:04.631Z,10.24
2023-01-07T04:38:04.623Z,10.23
2023-01-07T04:39:04.597Z,10.17
2023-01-07T04:40:04.583Z,10.25
2023-01-07T04:41:04.565Z,10.25
2023-01-07T04:42:04.547Z,10.23
2023-01-07T04:43:04.556Z,10.21
2023-01-07T04:44:04.538Z,10.23
2023-01-07T04:45:04.513Z,10.17
2023-01-07T04:46:04.742Z,10.18
2023-01-07T04:47:04.468Z,10.24
2023-01-07T04:48:04.454Z,10.20
2023-01-07T04:49:04.443Z,10.18
2023-01-07T04:50:04.420Z,10.17
2023-01-07T04:51:04.439Z,10.17
2023-01-07T04:52:04.425Z,10.33
2023-01-07T04:53:04.376Z,10.20
2023-01-07T04:54:04.362Z,10.18
2023-01-07T04:55:04.346Z,10.18
2023-01-07T04:56:04.326Z,10.33
2023-01-07T04:57:04.335Z,10.28
2023-01-07T04:58:04.312Z,10.24
2023-01-07T04:59:04.294Z,10.25
2023-01-07T05:00:04.268Z,10.18
2023-01-07T05:01:04.458Z,10.33
2023-01-07T05:02:04.528Z,10.23
2023-01-07T05:03:04.269Z,10.24
2023-01-07T05:04:04.327Z,10.23
2023-01-07T05:05:04.261Z,10.24
2023-01-07T05:06:04.211Z,10.23
2023-01-07T05:07:04.160Z,10.23
2023-01-07T05:08:04.171Z,10.23
2023-01-07T05:09:04.137Z,10.24
2023-01-07T05:10:04.163Z,10.23
2023-01-07T05:11:04.143Z,10.17
2023-01-07T05:12:04.123Z,10.18
2023-01-07T05:13:06.581Z,10.24
2023-01-07T05:14:04.026Z,10.18
2023-01-07T05:15:04.106Z,10.18
2023-01-07T05:16:04.037Z,10.33
2023-01-07T05:17:04.068Z,10.28
2023-01-07T05:18:04.062Z,10.18
2023-01-07T05:19:03.987Z,10.18
2023-01-07T06:26:33.471Z,10.18
2023-01-07T06:27:33.055Z,10.24
2023-01-07T07:22:04.888Z,10.09
2023-01-07T07:23:04.360Z,10.03
2023-01-07T07:25:09.862Z,10.05
2023-01-07T07:26:09.737Z,10.05
2023-01-07T07:28:15.265Z,10.05
2023-01-07T07:29:14.854Z,10.03
2023-01-07T07:31:09.720Z,10.05
2023-01-07T07:32:09.562Z,10.10
2023-01-07T07:33:09.205Z,10.10
2023-01-07T07:34:09.197Z,10.05
2023-01-07T07:35:09.175Z,10.13
2023-01-07T07:36:09.157Z,10.03
2023-01-07T07:37:09.259Z,10.03
2023-01-07T07:38:09.180Z,10.07
2023-01-07T07:39:09.106Z,10.09
2023-01-07T07:40:09.094Z,10.09
2023-01-07T07:41:09.116Z,10.09
2023-01-07T07:42:09.113Z,10.06
2023-01-07T07:43:12.688Z,10.13
2023-01-07T07:44:09.030Z,10.00
2023-01-07T07:45:09.007Z,10.09
2023-01-07T07:46:09.037Z,10.15
2023-01-07T07:47:08.976Z,10.18
2023-01-07T07:48:08.969Z,10.18
2023-01-07T07:49:08.948Z,10.15
2023-01-07T07:50:08.929Z,10.12
2023-01-07T07:51:08.910Z,10.13
2023-01-07T07:52:08.900Z,10.15
2023-01-07T07:53:08.975Z,10.15
2023-01-07T07:54:08.871Z,10.23
2023-01-07T07:55:19.937Z,10.23
2023-01-07T07:56:08.849Z,10.18
2023-01-07T07:57:08.813Z,10.23
2023-01-07T07:58:08.803Z,10.27
2023-01-07T07:59:08.783Z,10.27
2023-01-07T08:00:08.779Z,10.31
2023-01-07T08:01:08.799Z,10.33
2023-01-07T08:02:08.810Z,10.31
2023-01-07T08:03:08.860Z,10.31
2023-01-07T08:04:08.705Z,10.27
2023-01-07T08:05:08.683Z,10.38
2023-01-07T08:06:08.672Z,10.33
2023-01-07T08:07:08.658Z,10.34
2023-01-07T08:08:08.638Z,10.38
2023-01-07T08:09:08.722Z,10.41
2023-01-07T08:10:08.606Z,10.43
2023-01-07T08:11:08.601Z,10.34
2023-01-07T08:12:08.574Z,10.42
2023-01-07T08:13:08.555Z,10.28
2023-01-07T08:14:08.540Z,10.42
2023-01-07T08:15:08.530Z,10.30
2023-01-07T08:16:08.568Z,10.48
2023-01-07T08:17:08.521Z,10.36
2023-01-07T08:18:08.475Z,10.42
2023-01-07T08:19:08.457Z,10.43
2023-01-07T08:20:08.441Z,10.41
2023-01-07T08:21:08.438Z,10.48
2023-01-07T08:22:08.430Z,10.48
2023-01-07T08:23:08.394Z,10.46
2023-01-07T08:24:08.385Z,10.46
2023-01-07T08:25:08.457Z,10.43
2023-01-07T08:26:08.348Z,10.34
2023-01-07T08:27:08.335Z,10.43
2023-01-07T08:28:08.316Z,10.45
2023-01-07T08:29:08.297Z,10.42
2023-01-07T08:30:08.284Z,10.43
2023-01-07T08:31:08.322Z,10.42
2023-01-07T08:32:08.253Z,10.41
2023-01-07T08:33:08.236Z,10.41
2023-01-07T08:34:08.218Z,10.42
2023-01-07T08:35:08.201Z,10.41
2023-01-07T08:36:18.019Z,10.39
2023-01-07T08:37:08.172Z,10.36
2023-01-07T08:38:08.152Z,10.42
2023-01-07T08:39:08.136Z,10.46
2023-01-07T08:40:08.136Z,10.42
2023-01-07T08:41:08.208Z,10.43
2023-01-07T08:42:08.089Z,10.46
2023-01-07T08:43:08.072Z,10.43
2023-01-07T08:44:08.067Z,10.46
2023-01-07T08:45:08.047Z,10.49
2023-01-07T08:46:08.025Z,10.57
2023-01-07T08:47:08.013Z,10.62
2023-01-07T08:48:07.993Z,10.62
2023-01-07T08:49:07.975Z,10.67
2023-01-07T08:50:07.962Z,10.65
2023-01-07T08:51:07.961Z,10.72
2023-01-07T08:52:07.928Z,10.83
2023-01-07T08:53:07.915Z,10.72
2023-01-07T08:54:07.900Z,10.76
2023-01-07T08:55:07.883Z,10.75
2023-01-07T08:56:07.869Z,10.77
2023-01-07T08:57:07.965Z,10.83
2023-01-07T08:58:07.832Z,10.87
2023-01-07T08:59:07.827Z,10.90
2023-01-07T09:00:07.809Z,10.87
2023-01-07T09:01:07.950Z,10.87
2023-01-07T09:02:07.892Z,10.89
2023-01-07T09:03:07.752Z,10.87
2023-01-07T09:04:07.739Z,10.89
2023-01-07T09:05:07.719Z,10.86
2023-01-07T09:06:07.709Z,10.95
2023-01-07T09:07:07.699Z,11.10
2023-01-07T09:08:07.673Z,11.10
2023-01-07T09:09:07.672Z,11.07
2023-01-07T09:10:07.655Z,11.15
2023-01-07T09:11:07.625Z,11.15
2023-01-07T09:12:10.645Z,11.19
2023-01-07T09:13:07.698Z,11.25
2023-01-07T09:14:07.588Z,11.15
2023-01-07T09:15:07.584Z,11.22
2023-01-07T09:16:07.673Z,11.31
2023-01-07T09:17:07.528Z,11.33
2023-01-07T09:18:07.517Z,11.31
2023-01-07T09:19:07.500Z,11.34
2023-01-07T09:20:07.498Z,11.34
2023-01-07T09:21:07.468Z,11.34
2023-01-07T09:22:07.451Z,11.38
2023-01-07T09:23:07.447Z,11.27
2023-01-07T09:24:07.426Z,11.35
2023-01-07T09:25:07.404Z,11.30
2023-01-07T09:26:07.418Z,11.30
2023-01-07T09:27:07.375Z,11.35
2023-01-07T09:28:07.366Z,11.27
2023-01-07T09:29:07.444Z,11.31
2023-01-07T09:30:07.326Z,11.34
2023-01-07T09:31:07.322Z,11.27
2023-01-07T09:32:07.296Z,11.33
2023-01-07T09:33:07.283Z,11.27
2023-01-07T09:34:07.272Z,11.48
2023-01-07T09:35:07.254Z,11.33
2023-01-07T09:36:07.240Z,11.40
2023-01-07T09:37:07.218Z,11.38
2023-01-07T09:38:07.203Z,11.48
2023-01-07T09:39:07.202Z,11.43
2023-01-07T09:40:07.171Z,11.52
2023-01-07T09:41:07.155Z,11.45
2023-01-07T09:42:07.152Z,11.60
2023-01-07T09:43:07.836Z,11.63
2023-01-07T09:44:07.122Z,11.65
2023-01-07T09:45:07.198Z,11.71
2023-01-07T09:46:07.341Z,11.73
2023-01-07T09:47:07.062Z,11.70
2023-01-07T09:48:07.050Z,11.68
2023-01-07T09:49:07.036Z,11.67
2023-01-07T09:50:07.028Z,11.59
2023-01-07T09:51:07.001Z,11.63
2023-01-07T09:52:06.986Z,11.63
2023-01-07T09:53:06.971Z,11.65
2023-01-07T09:54:06.951Z,11.59
2023-01-07T09:55:06.957Z,11.58
2023-01-07T09:56:10.436Z,11.43
2023-01-07T09:57:06.906Z,11.56
2023-01-07T09:58:06.893Z,11.48
2023-01-07T09:59:06.875Z,11.38
2023-01-07T10:00:06.859Z,11.43
2023-01-07T10:01:07.034Z,11.41
2023-01-07T10:02:06.850Z,11.48
2023-01-07T10:03:06.816Z,11.43
2023-01-07T10:04:06.877Z,11.43
2023-01-07T10:05:06.781Z,11.48
2023-01-07T10:06:06.769Z,11.38
2023-01-07T10:07:06.749Z,11.48
2023-01-07T10:08:29.710Z,11.43
2023-01-07T10:09:06.733Z,11.41
2023-01-07T10:10:06.708Z,11.56
2023-01-07T10:11:06.689Z,11.45
2023-01-07T10:12:06.673Z,11.59
2023-01-07T10:13:06.655Z,11.65
2023-01-07T10:14:06.639Z,11.78
2023-01-07T10:15:06.633Z,11.76
2023-01-07T10:16:06.672Z,11.88
2023-01-07T10:17:06.697Z,11.86
2023-01-07T10:18:08.395Z,12.02
2023-01-07T10:19:06.561Z,12.00
2023-01-07T10:20:06.549Z,12.00
2023-01-07T10:21:06.531Z,11.97
2023-01-07T10:22:06.512Z,12.08
2023-01-07T10:23:06.512Z,12.03
2023-01-07T10:24:06.488Z,12.03
2023-01-07T10:25:06.472Z,12.21
2023-01-07T10:26:06.469Z,12.23
2023-01-07T10:27:06.438Z,12.36
2023-01-07T10:28:06.423Z,12.44
2023-01-07T10:29:06.406Z,12.58
2023-01-07T10:30:06.391Z,12.75
2023-01-07T10:31:06.371Z,12.90
2023-01-07T10:32:06.357Z,12.90
2023-01-07T10:33:06.436Z,13.06
2023-01-07T10:34:06.323Z,13.16
2023-01-07T10:35:06.312Z,13.13
2023-01-07T10:36:06.295Z,13.05
2023-01-07T10:37:06.281Z,13.11
2023-01-07T10:38:06.263Z,13.08
2023-01-07T10:39:06.248Z,13.16
2023-01-07T10:40:06.240Z,13.21
2023-01-07T10:41:06.223Z,13.28
2023-01-07T10:42:06.202Z,13.42
2023-01-07T10:43:06.189Z,13.57
2023-01-07T10:44:06.169Z,13.55
2023-01-07T10:45:06.155Z,13.58
2023-01-07T10:46:06.208Z,13.54
2023-01-07T10:47:06.134Z,13.65
2023-01-07T10:48:06.111Z,13.67
2023-01-07T10:49:06.206Z,13.73
2023-01-07T10:50:06.079Z,13.78
2023-01-07T10:51:06.070Z,13.68
2023-01-07T10:52:06.051Z,13.67
2023-01-07T10:53:06.037Z,13.64
2023-01-07T10:54:06.018Z,13.55
2023-01-07T10:55:06.015Z,13.45
2023-01-07T10:56:06.001Z,13.42
2023-01-07T10:57:05.983Z,13.45
2023-01-07T10:58:05.969Z,13.42
2023-01-07T10:59:05.944Z,13.52
2023-01-07T11:00:05.945Z,13.55
2023-01-07T11:01:06.128Z,13.55
2023-01-07T11:02:06.137Z,13.52
2023-01-07T11:03:05.943Z,13.62
2023-01-07T11:04:05.910Z,13.50
2023-01-07T11:05:05.961Z,13.50
2023-01-07T11:06:05.837Z,13.55
2023-01-07T11:07:05.828Z,13.58
2023-01-07T11:08:05.819Z,13.62
2023-01-07T11:09:05.800Z,13.62
2023-01-07T11:10:05.790Z,13.57
2023-01-07T11:11:05.770Z,13.57
2023-01-07T11:12:05.754Z,13.65
2023-01-07T11:13:05.738Z,13.64
2023-01-07T11:14:05.742Z,13.62
2023-01-07T11:15:05.708Z,13.60
2023-01-07T11:16:05.689Z,13.68
2023-01-07T11:17:05.676Z,13.70
2023-01-07T11:18:05.668Z,13.82
2023-01-07T11:19:05.653Z,14.00
2023-01-07T11:20:05.643Z,14.11
2023-01-07T11:21:05.725Z,14.22
2023-01-07T11:22:05.601Z,14.31
2023-01-07T11:23:05.587Z,14.38
2023-01-07T11:24:05.616Z,14.49
2023-01-07T11:25:05.555Z,14.48
2023-01-07T11:26:05.543Z,14.48
2023-01-07T11:27:05.541Z,14.34
2023-01-07T11:28:05.517Z,14.33
2023-01-07T11:29:05.496Z,14.19
2023-01-07T11:30:05.499Z,14.25
2023-01-07T11:31:05.477Z,14.23
2023-01-07T11:32:05.550Z,14.08
2023-01-07T11:33:05.441Z,14.13
2023-01-07T11:34:05.551Z,14.05
2023-01-07T11:35:05.410Z,14.01
2023-01-07T11:36:05.395Z,13.94
2023-01-07T11:37:05.482Z,13.79
2023-01-07T11:38:05.360Z,13.65
2023-01-07T11:39:05.389Z,13.62
2023-01-07T11:40:05.341Z,13.57
2023-01-07T11:41:05.317Z,13.40
2023-01-07T11:42:05.311Z,13.37
2023-01-07T11:43:05.288Z,13.31
2023-01-07T11:44:05.280Z,13.19
2023-01-07T11:45:05.256Z,13.13
2023-01-07T11:46:21.407Z,13.13
2023-01-07T11:47:05.244Z,13.13
2023-01-07T11:48:05.223Z,13.09
2023-01-07T11:49:05.205Z,13.08
2023-01-07T11:50:05.226Z,13.09
2023-01-07T11:51:05.192Z,13.06
2023-01-07T11:52:05.156Z,12.93
2023-01-07T11:53:05.239Z,12.98
2023-01-07T11:54:05.124Z,12.87
2023-01-07T11:55:05.110Z,12.87
2023-01-07T11:56:05.093Z,12.83
2023-01-07T11:57:05.082Z,12.78
2023-01-07T11:58:29.577Z,12.72
2023-01-07T11:59:05.048Z,12.73
2023-01-07T12:00:05.035Z,12.58
2023-01-07T12:01:05.063Z,12.62
2023-01-07T12:02:05.053Z,12.51
2023-01-07T12:03:05.024Z,12.39
2023-01-07T12:04:04.971Z,12.40
2023-01-07T12:05:04.958Z,12.30
2023-01-07T12:06:04.953Z,12.37
2023-01-07T12:07:04.927Z,12.32
2023-01-07T12:08:04.909Z,12.33
2023-01-07T12:09:04.989Z,12.30
2023-01-07T12:10:04.878Z,12.32
2023-01-07T12:11:04.889Z,12.36
2023-01-07T12:12:04.848Z,12.28
2023-01-07T12:13:04.836Z,12.28
2023-01-07T12:14:04.843Z,12.32
2023-01-07T12:15:04.814Z,12.23
2023-01-07T12:16:04.825Z,12.28
2023-01-07T12:17:04.773Z,12.25
2023-01-07T12:18:04.766Z,12.32
2023-01-07T12:19:04.743Z,12.28
2023-01-07T12:20:04.726Z,12.26
2023-01-07T12:21:04.738Z,12.28
2023-01-07T12:22:04.693Z,12.28
2023-01-07T12:23:04.695Z,12.30
2023-01-07T12:24:04.680Z,12.28
2023-01-07T12:25:04.751Z,12.35
2023-01-07T12:26:04.661Z,12.28
2023-01-07T12:27:04.644Z,12.28
2023-01-07T12:28:04.600Z,12.23
2023-01-07T12:29:04.637Z,12.26
2023-01-07T12:30:04.629Z,12.28
2023-01-07T12:31:04.599Z,12.25
2023-01-07T12:32:04.555Z,12.28
2023-01-07T12:33:04.521Z,12.28
2023-01-07T12:34:04.512Z,12.18
2023-01-07T12:35:14.291Z,12.26
2023-01-07T12:36:04.477Z,12.18
2023-01-07T12:37:04.466Z,12.28
2023-01-07T12:38:04.462Z,12.29
2023-01-07T12:39:04.433Z,12.32
2023-01-07T12:40:04.437Z,12.37
2023-01-07T12:41:04.498Z,12.25
2023-01-07T12:42:04.403Z,12.30
2023-01-07T12:43:04.373Z,12.30
2023-01-07T12:44:04.361Z,12.36
2023-01-07T12:45:04.341Z,12.28
2023-01-07T12:46:04.372Z,12.29
2023-01-07T12:47:31.938Z,12.21
2023-01-07T12:48:04.318Z,12.23
2023-01-07T12:49:04.280Z,12.18
2023-01-07T12:50:04.259Z,12.21
2023-01-07T12:51:04.244Z,12.26
2023-01-07T12:52:04.240Z,12.12
2023-01-07T12:53:04.218Z,12.18
2023-01-07T12:54:04.198Z,12.14
2023-01-07T12:55:04.182Z,12.12
2023-01-07T12:56:04.165Z,12.15
2023-01-07T12:57:04.254Z,12.10
2023-01-07T12:58:04.139Z,12.21
2023-01-07T12:59:04.131Z,12.23
2023-01-07T13:00:04.103Z,12.07
2023-01-07T13:01:04.210Z,12.12
2023-01-07T13:02:04.414Z,12.00
2023-01-07T13:03:04.063Z,12.12
2023-01-07T13:04:04.042Z,12.03
2023-01-07T13:05:04.160Z,12.11
2023-01-07T13:06:04.014Z,12.12
2023-01-07T13:07:04.006Z,12.14
2023-01-07T13:08:04.505Z,12.05
2023-01-07T13:09:03.971Z,12.15
2023-01-07T13:10:03.949Z,12.20
2023-01-07T13:11:03.934Z,12.28
2023-01-07T13:12:03.946Z,12.32
2023-01-07T13:13:03.997Z,12.44
2023-01-07T13:14:03.957Z,12.54
2023-01-07T13:15:03.879Z,12.45
2023-01-07T13:16:03.952Z,12.51
2023-01-07T13:17:03.842Z,12.45
2023-01-07T13:18:03.835Z,12.50
2023-01-07T13:19:03.814Z,12.44
2023-01-07T13:20:04.958Z,12.50
2023-01-07T13:21:03.786Z,12.36
2023-01-07T13:22:03.761Z,12.43
2023-01-07T13:23:03.751Z,12.43
2023-01-07T13:24:03.735Z,12.39
2023-01-07T13:25:03.720Z,12.51
2023-01-07T13:26:03.705Z,12.48
2023-01-07T13:27:03.687Z,12.50
2023-01-07T13:28:03.673Z,12.55
2023-01-07T13:29:03.773Z,12.63
2023-01-07T13:30:03.645Z,12.62
2023-01-07T13:31:03.647Z,12.63
2023-01-07T13:32:03.611Z,12.61
2023-01-07T13:33:03.593Z,12.61
2023-01-07T13:34:03.577Z,12.63
2023-01-07T13:35:03.575Z,12.57
2023-01-07T13:36:03.552Z,12.66
2023-01-07T13:37:03.757Z,12.65
2023-01-07T13:38:03.521Z,12.62
2023-01-07T13:39:03.504Z,12.61
2023-01-07T13:40:03.487Z,12.68
2023-01-07T13:41:03.475Z,12.70
2023-01-07T13:42:03.461Z,12.63
2023-01-07T13:43:03.454Z,12.65
2023-01-07T13:44:03.428Z,12.57
2023-01-07T13:45:03.519Z,12.62
2023-01-07T13:46:03.484Z,12.66
2023-01-07T13:47:03.385Z,12.54
2023-01-07T13:48:03.362Z,12.61
2023-01-07T13:49:03.365Z,12.54
2023-01-07T13:50:03.342Z,12.57
2023-01-07T13:51:03.323Z,12.63
2023-01-07T13:52:03.302Z,12.61
2023-01-07T13:53:03.302Z,12.65
2023-01-07T13:54:03.273Z,12.68
2023-01-07T13:55:03.274Z,12.61
2023-01-07T13:56:03.254Z,12.75
2023-01-07T13:57:03.227Z,12.63
2023-01-07T13:58:03.216Z,12.63
2023-01-07T13:59:03.196Z,12.63
2023-01-07T14:00:03.180Z,12.66
2023-01-07T14:01:03.482Z,12.44
2023-01-07T14:02:03.314Z,12.44
2023-01-07T14:03:03.179Z,12.37
2023-01-07T14:04:03.122Z,12.40
2023-01-07T14:05:03.112Z,12.29
2023-01-07T14:06:03.089Z,12.36
2023-01-07T14:07:03.095Z,12.39
2023-01-07T14:08:03.057Z,12.39
2023-01-07T14:09:03.043Z,12.39
2023-01-07T14:10:03.034Z,12.33
2023-01-07T14:11:03.012Z,12.48
2023-01-07T14:12:02.996Z,12.39
2023-01-07T14:13:02.993Z,12.50
2023-01-07T14:14:02.966Z,12.47
2023-01-07T14:15:02.963Z,12.48
2023-01-07T14:16:02.972Z,12.68
2023-01-07T14:17:03.022Z,12.65
2023-01-07T14:18:02.909Z,12.57
2023-01-07T14:19:02.890Z,12.65
2023-01-07T14:20:02.879Z,12.65
2023-01-07T14:21:02.862Z,12.47
2023-01-07T14:22:02.844Z,12.51
2023-01-07T14:23:02.827Z,12.40
2023-01-07T14:24:02.821Z,12.37
2023-01-07T14:25:02.805Z,12.47
2023-01-07T14:26:02.785Z,12.40
2023-01-07T14:27:02.774Z,12.40
2023-01-07T14:28:02.755Z,12.28
2023-01-07T14:29:02.739Z,12.28
2023-01-07T14:30:15.953Z,12.25
2023-01-07T14:31:02.731Z,12.32
2023-01-07T14:32:02.691Z,12.21
2023-01-07T14:33:02.884Z,12.14
2023-01-07T14:34:02.671Z,12.17
2023-01-07T14:35:02.652Z,12.15
2023-01-07T14:36:02.642Z,12.11
2023-01-07T14:37:02.834Z,12.12
2023-01-07T14:38:02.601Z,12.08
2023-01-07T14:39:02.587Z,12.05
2023-01-07T14:40:02.574Z,12.08
2023-01-07T14:41:02.570Z,12.02
2023-01-07T14:42:02.582Z,12.03
2023-01-07T14:43:02.532Z,11.96
2023-01-07T14:44:02.632Z,11.88
2023-01-07T14:45:02.512Z,11.76
2023-01-07T14:46:02.581Z,11.73
2023-01-07T14:47:02.519Z,11.62
2023-01-07T14:48:02.452Z,11.51
2023-01-07T14:49:02.532Z,11.48
2023-01-07T14:50:02.419Z,11.37
2023-01-07T14:51:02.406Z,11.34
2023-01-07T14:52:02.386Z,11.23
2023-01-07T14:53:02.365Z,11.19
2023-01-07T14:54:02.357Z,11.13
2023-01-07T14:55:02.339Z,11.01
2023-01-07T14:56:02.896Z,11.01
2023-01-07T14:57:02.306Z,10.94
2023-01-07T14:58:02.288Z,10.86
2023-01-07T14:59:02.273Z,10.87
2023-01-07T15:00:02.260Z,10.82
2023-01-07T15:01:02.379Z,10.69
2023-01-07T15:02:02.306Z,10.69
2023-01-07T15:03:02.278Z,10.61
2023-01-07T15:04:02.208Z,10.58
2023-01-07T15:05:02.331Z,10.48
2023-01-07T15:06:02.164Z,10.45
2023-01-07T15:07:02.156Z,10.46
2023-01-07T15:08:02.152Z,10.25
2023-01-07T15:09:02.130Z,10.17